sensor_id;sensor_type;location;lat;lon;timestamp;pressure;altitude;pressure_sealevel;temperature;humidity
60246;BME280;46107;53.356;-1.524;2023-04-15T00:01:15;98392.04;;;6.19;68.92
60246;BME280;46107;53.356;-1.524;2023-04-15T00:03:43;98396.59;;;5.55;70.63
60246;BME280;46107;53.356;-1.524;2023-04-15T00:06:11;98398.76;;;5.88;69.55
60246;BME280;46107;53.356;-1.524;2023-04-15T00:08:38;98405.37;;;5.27;72.90
60246;BME280;46107;53.356;-1.524;2023-04-15T00:11:06;98403.60;;;5.07;72.27
60246;BME280;46107;53.356;-1.524;2023-04-15T00:13:34;98407.65;;;4.97;74.41
60246;BME280;46107;53.356;-1.524;2023-04-15T00:16:02;98410.19;;;5.03;73.94
60246;BME280;46107;53.356;-1.524;2023-04-15T00:18:29;98410.56;;;5.31;74.17
60246;BME280;46107;53.356;-1.524;2023-04-15T00:20:57;98410.83;;;5.67;72.09
60246;BME280;46107;53.356;-1.524;2023-04-15T00:23:25;98415.66;;;6.04;71.40
60246;BME280;46107;53.356;-1.524;2023-04-15T00:25:53;98420.28;;;6.06;71.36
60246;BME280;46107;53.356;-1.524;2023-04-15T00:28:20;98427.78;;;5.96;70.91
60246;BME280;46107;53.356;-1.524;2023-04-15T00:30:49;98431.17;;;4.96;72.68
60246;BME280;46107;53.356;-1.524;2023-04-15T00:33:17;98429.27;;;6.05;71.27
60246;BME280;46107;53.356;-1.524;2023-04-15T00:35:44;98437.99;;;5.17;73.45
60246;BME280;46107;53.356;-1.524;2023-04-15T00:38:12;98438.07;;;6.07;72.19
60246;BME280;46107;53.356;-1.524;2023-04-15T00:40:40;98445.44;;;5.12;74.48
60246;BME280;46107;53.356;-1.524;2023-04-15T00:43:08;98440.32;;;4.05;78.38
60246;BME280;46107;53.356;-1.524;2023-04-15T00:45:36;98445.55;;;4.43;76.72
60246;BME280;46107;53.356;-1.524;2023-04-15T00:48:05;98447.11;;;5.51;74.10
60246;BME280;46107;53.356;-1.524;2023-04-15T00:50:33;98446.55;;;5.53;72.67
60246;BME280;46107;53.356;-1.524;2023-04-15T00:53:01;98450.81;;;5.32;73.01
60246;BME280;46107;53.356;-1.524;2023-04-15T00:55:28;98453.94;;;5.60;71.69
60246;BME280;46107;53.356;-1.524;2023-04-15T00:57:57;98456.21;;;6.41;70.89
60246;BME280;46107;53.356;-1.524;2023-04-15T01:00:25;98466.76;;;5.54;72.25
60246;BME280;46107;53.356;-1.524;2023-04-15T01:02:52;98466.34;;;6.49;69.56
60246;BME280;46107;53.356;-1.524;2023-04-15T01:05:20;98472.88;;;6.04;69.56
60246;BME280;46107;53.356;-1.524;2023-04-15T01:07:48;98478.96;;;6.30;68.23
60246;BME280;46107;53.356;-1.524;2023-04-15T01:10:16;98488.44;;;5.01;72.66
60246;BME280;46107;53.356;-1.524;2023-04-15T01:12:45;98485.52;;;5.85;68.79
60246;BME280;46107;53.356;-1.524;2023-04-15T01:15:13;98488.19;;;5.85;69.81
60246;BME280;46107;53.356;-1.524;2023-04-15T01:17:42;98496.01;;;5.75;69.32
60246;BME280;46107;53.356;-1.524;2023-04-15T01:20:09;98499.67;;;5.27;71.25
60246;BME280;46107;53.356;-1.524;2023-04-15T01:22:37;98507.83;;;5.00;73.35
60246;BME280;46107;53.356;-1.524;2023-04-15T01:25:08;98513.34;;;5.20;71.73
60246;BME280;46107;53.356;-1.524;2023-04-15T01:27:38;98518.29;;;5.61;73.19
60246;BME280;46107;53.356;-1.524;2023-04-15T01:30:07;98525.96;;;6.56;68.74
60246;BME280;46107;53.356;-1.524;2023-04-15T01:32:35;98531.77;;;5.32;70.59
60246;BME280;46107;53.356;-1.524;2023-04-15T01:35:03;98536.48;;;4.71;73.81
60246;BME280;46107;53.356;-1.524;2023-04-15T01:37:31;98538.24;;;5.18;71.68
60246;BME280;46107;53.356;-1.524;2023-04-15T01:39:59;98538.35;;;5.28;72.49
60246;BME280;46107;53.356;-1.524;2023-04-15T01:42:26;98538.14;;;5.11;73.24
60246;BME280;46107;53.356;-1.524;2023-04-15T01:44:54;98538.40;;;4.84;74.75
60246;BME280;46107;53.356;-1.524;2023-04-15T01:47:21;98538.49;;;4.81;74.84
60246;BME280;46107;53.356;-1.524;2023-04-15T01:49:49;98543.51;;;5.57;72.09
60246;BME280;46107;53.356;-1.524;2023-04-15T01:52:16;98548.45;;;5.16;73.29
60246;BME280;46107;53.356;-1.524;2023-04-15T01:54:45;98545.43;;;4.83;74.24
60246;BME280;46107;53.356;-1.524;2023-04-15T01:57:13;98550.53;;;5.07;73.83
60246;BME280;46107;53.356;-1.524;2023-04-15T01:59:40;98553.43;;;5.14;75.22
60246;BME280;46107;53.356;-1.524;2023-04-15T02:02:08;98558.70;;;4.38;74.17
60246;BME280;46107;53.356;-1.524;2023-04-15T02:04:36;98561.99;;;4.90;76.45
60246;BME280;46107;53.356;-1.524;2023-04-15T02:07:04;98562.11;;;4.77;75.85
60246;BME280;46107;53.356;-1.524;2023-04-15T02:09:31;98566.29;;;5.09;72.74
60246;BME280;46107;53.356;-1.524;2023-04-15T02:11:59;98571.49;;;5.58;71.23
60246;BME280;46107;53.356;-1.524;2023-04-15T02:14:26;98572.77;;;5.29;73.52
60246;BME280;46107;53.356;-1.524;2023-04-15T02:16:53;98578.52;;;4.76;74.03
60246;BME280;46107;53.356;-1.524;2023-04-15T02:19:21;98579.09;;;4.74;75.24
60246;BME280;46107;53.356;-1.524;2023-04-15T02:21:48;98580.22;;;5.12;74.36
60246;BME280;46107;53.356;-1.524;2023-04-15T02:24:16;98585.29;;;4.92;75.11
60246;BME280;46107;53.356;-1.524;2023-04-15T02:26:43;98585.50;;;5.48;72.54
60246;BME280;46107;53.356;-1.524;2023-04-15T02:29:11;98586.19;;;5.46;73.09
60246;BME280;46107;53.356;-1.524;2023-04-15T02:31:39;98586.06;;;4.26;75.54
60246;BME280;46107;53.356;-1.524;2023-04-15T02:34:07;98595.10;;;5.54;72.15
60246;BME280;46107;53.356;-1.524;2023-04-15T02:36:34;98590.04;;;5.06;73.52
60246;BME280;46107;53.356;-1.524;2023-04-15T02:39:02;98596.16;;;4.88;75.25
60246;BME280;46107;53.356;-1.524;2023-04-15T02:41:29;98596.59;;;4.11;77.33
60246;BME280;46107;53.356;-1.524;2023-04-15T02:43:57;98599.52;;;3.27;82.00
60246;BME280;46107;53.356;-1.524;2023-04-15T02:46:25;98601.22;;;3.96;78.46
60246;BME280;46107;53.356;-1.524;2023-04-15T02:48:53;98609.54;;;4.28;77.86
60246;BME280;46107;53.356;-1.524;2023-04-15T02:51:21;98611.31;;;3.84;78.99
60246;BME280;46107;53.356;-1.524;2023-04-15T02:53:49;98620.35;;;4.60;78.05
60246;BME280;46107;53.356;-1.524;2023-04-15T02:56:16;98623.78;;;4.01;79.01
60246;BME280;46107;53.356;-1.524;2023-04-15T02:58:44;98625.98;;;4.38;79.05
60246;BME280;46107;53.356;-1.524;2023-04-15T03:01:12;98626.28;;;3.69;80.39
60246;BME280;46107;53.356;-1.524;2023-04-15T03:03:39;98623.99;;;5.21;75.51
60246;BME280;46107;53.356;-1.524;2023-04-15T03:06:06;98634.09;;;4.09;77.60
60246;BME280;46107;53.356;-1.524;2023-04-15T03:08:33;98636.86;;;4.47;76.31
60246;BME280;46107;53.356;-1.524;2023-04-15T03:11:00;98637.87;;;5.19;75.28
60246;BME280;46107;53.356;-1.524;2023-04-15T03:13:28;98639.69;;;5.28;74.91
60246;BME280;46107;53.356;-1.524;2023-04-15T03:15:56;98644.68;;;4.23;77.84
60246;BME280;46107;53.356;-1.524;2023-04-15T03:18:23;98649.89;;;4.31;78.54
60246;BME280;46107;53.356;-1.524;2023-04-15T03:20:51;98648.60;;;5.20;75.63
60246;BME280;46107;53.356;-1.524;2023-04-15T03:23:18;98656.38;;;5.44;74.12
60246;BME280;46107;53.356;-1.524;2023-04-15T03:25:46;98664.54;;;4.29;77.22
60246;BME280;46107;53.356;-1.524;2023-04-15T03:28:14;98667.03;;;4.78;76.02
60246;BME280;46107;53.356;-1.524;2023-04-15T03:30:41;98668.14;;;4.52;76.01
60246;BME280;46107;53.356;-1.524;2023-04-15T03:33:09;98665.90;;;5.18;72.88
60246;BME280;46107;53.356;-1.524;2023-04-15T03:35:37;98669.93;;;4.66;75.70
60246;BME280;46107;53.356;-1.524;2023-04-15T03:38:04;98671.76;;;4.43;76.46
60246;BME280;46107;53.356;-1.524;2023-04-15T03:40:32;98675.58;;;4.55;75.63
60246;BME280;46107;53.356;-1.524;2023-04-15T03:42:59;98676.79;;;4.38;78.38
60246;BME280;46107;53.356;-1.524;2023-04-15T03:45:27;98675.22;;;4.87;76.71
60246;BME280;46107;53.356;-1.524;2023-04-15T03:47:55;98675.63;;;4.26;75.86
60246;BME280;46107;53.356;-1.524;2023-04-15T03:50:22;98673.39;;;5.17;73.93
60246;BME280;46107;53.356;-1.524;2023-04-15T03:52:50;98677.03;;;4.67;74.46
60246;BME280;46107;53.356;-1.524;2023-04-15T03:55:18;98681.62;;;4.10;74.92
60246;BME280;46107;53.356;-1.524;2023-04-15T03:57:46;98685.51;;;4.15;75.02
60246;BME280;46107;53.356;-1.524;2023-04-15T04:00:13;98684.55;;;5.33;70.96
60246;BME280;46107;53.356;-1.524;2023-04-15T04:02:40;98688.61;;;4.90;72.37
60246;BME280;46107;53.356;-1.524;2023-04-15T04:05:08;98692.63;;;4.54;72.72
60246;BME280;46107;53.356;-1.524;2023-04-15T04:07:36;98690.73;;;5.26;69.79
60246;BME280;46107;53.356;-1.524;2023-04-15T04:10:04;98700.03;;;4.81;71.21
60246;BME280;46107;53.356;-1.524;2023-04-15T04:12:31;98701.89;;;4.22;72.55
60246;BME280;46107;53.356;-1.524;2023-04-15T04:14:59;98703.24;;;5.26;70.49
60246;BME280;46107;53.356;-1.524;2023-04-15T04:17:26;98708.55;;;3.96;73.59
60246;BME280;46107;53.356;-1.524;2023-04-15T04:19:54;98711.53;;;4.92;72.25
60246;BME280;46107;53.356;-1.524;2023-04-15T04:22:22;98714.62;;;4.37;73.20
60246;BME280;46107;53.356;-1.524;2023-04-15T04:24:49;98717.03;;;4.86;70.91
60246;BME280;46107;53.356;-1.524;2023-04-15T04:27:16;98723.29;;;4.77;72.23
60246;BME280;46107;53.356;-1.524;2023-04-15T04:29:44;98723.27;;;5.74;69.38
60246;BME280;46107;53.356;-1.524;2023-04-15T04:32:11;98726.69;;;5.55;69.76
60246;BME280;46107;53.356;-1.524;2023-04-15T04:34:39;98736.00;;;5.35;70.38
60246;BME280;46107;53.356;-1.524;2023-04-15T04:37:07;98735.01;;;5.17;69.16
60246;BME280;46107;53.356;-1.524;2023-04-15T04:39:34;98741.55;;;5.34;68.75
60246;BME280;46107;53.356;-1.524;2023-04-15T04:42:02;98740.22;;;4.99;70.21
60246;BME280;46107;53.356;-1.524;2023-04-15T04:44:30;98742.08;;;5.07;69.98
60246;BME280;46107;53.356;-1.524;2023-04-15T04:46:58;98743.61;;;4.57;71.92
60246;BME280;46107;53.356;-1.524;2023-04-15T04:49:25;98747.38;;;4.79;71.20
60246;BME280;46107;53.356;-1.524;2023-04-15T04:51:53;98748.60;;;4.97;70.52
60246;BME280;46107;53.356;-1.524;2023-04-15T04:54:21;98755.96;;;4.78;71.67
60246;BME280;46107;53.356;-1.524;2023-04-15T04:56:48;98758.43;;;4.89;71.02
60246;BME280;46107;53.356;-1.524;2023-04-15T04:59:16;98763.59;;;3.85;73.80
60246;BME280;46107;53.356;-1.524;2023-04-15T05:01:44;98770.46;;;4.13;72.96
60246;BME280;46107;53.356;-1.524;2023-04-15T05:04:12;98769.59;;;5.07;70.17
60246;BME280;46107;53.356;-1.524;2023-04-15T05:06:39;98772.38;;;4.53;71.99
60246;BME280;46107;53.356;-1.524;2023-04-15T05:09:07;98771.22;;;4.84;71.29
60246;BME280;46107;53.356;-1.524;2023-04-15T05:11:35;98773.48;;;4.91;71.18
60246;BME280;46107;53.356;-1.524;2023-04-15T05:14:02;98775.26;;;5.23;70.93
60246;BME280;46107;53.356;-1.524;2023-04-15T05:16:29;98781.30;;;4.52;72.23
60246;BME280;46107;53.356;-1.524;2023-04-15T05:18:57;98787.77;;;4.76;71.52
60246;BME280;46107;53.356;-1.524;2023-04-15T05:21:24;98792.98;;;4.26;72.90
60246;BME280;46107;53.356;-1.524;2023-04-15T05:23:52;98797.78;;;4.30;73.63
60246;BME280;46107;53.356;-1.524;2023-04-15T05:26:19;98803.41;;;4.08;73.37
60246;BME280;46107;53.356;-1.524;2023-04-15T05:28:46;98810.84;;;4.45;71.99
60246;BME280;46107;53.356;-1.524;2023-04-15T05:31:14;98817.63;;;5.09;70.12
60246;BME280;46107;53.356;-1.524;2023-04-15T05:33:41;98824.66;;;4.42;72.50
60246;BME280;46107;53.356;-1.524;2023-04-15T05:36:09;98832.39;;;4.31;74.04
60246;BME280;46107;53.356;-1.524;2023-04-15T05:38:37;98839.47;;;4.09;73.70
60246;BME280;46107;53.356;-1.524;2023-04-15T05:41:04;98844.70;;;5.04;70.69
60246;BME280;46107;53.356;-1.524;2023-04-15T05:43:31;98851.77;;;5.04;69.41
60246;BME280;46107;53.356;-1.524;2023-04-15T05:45:58;98856.60;;;5.70;66.98
60246;BME280;46107;53.356;-1.524;2023-04-15T05:48:27;98860.51;;;5.54;67.59
60246;BME280;46107;53.356;-1.524;2023-04-15T05:50:55;98867.40;;;5.74;68.71
60246;BME280;46107;53.356;-1.524;2023-04-15T05:53:23;98872.86;;;5.06;68.56
60246;BME280;46107;53.356;-1.524;2023-04-15T05:55:51;98880.94;;;5.14;70.14
60246;BME280;46107;53.356;-1.524;2023-04-15T05:58:18;98887.69;;;4.08;71.09
60246;BME280;46107;53.356;-1.524;2023-04-15T06:00:46;98893.47;;;5.15;68.07
60246;BME280;46107;53.356;-1.524;2023-04-15T06:03:18;98897.24;;;5.16;70.23
60246;BME280;46107;53.356;-1.524;2023-04-15T06:05:47;98900.99;;;5.99;68.09
60246;BME280;46107;53.356;-1.524;2023-04-15T06:08:14;98907.13;;;4.68;69.62
60246;BME280;46107;53.356;-1.524;2023-04-15T06:10:42;98912.94;;;5.16;69.80
60246;BME280;46107;53.356;-1.524;2023-04-15T06:13:09;98913.33;;;5.66;68.01
60246;BME280;46107;53.356;-1.524;2023-04-15T06:15:37;98920.06;;;5.33;67.45
60246;BME280;46107;53.356;-1.524;2023-04-15T06:18:04;98923.85;;;5.82;67.58
60246;BME280;46107;53.356;-1.524;2023-04-15T06:20:32;98928.27;;;5.39;69.71
60246;BME280;46107;53.356;-1.524;2023-04-15T06:22:59;98933.03;;;5.40;69.93
60246;BME280;46107;53.356;-1.524;2023-04-15T06:25:27;98940.70;;;5.72;68.65
60246;BME280;46107;53.356;-1.524;2023-04-15T06:27:55;98945.74;;;5.87;68.83
60246;BME280;46107;53.356;-1.524;2023-04-15T06:30:23;98946.88;;;5.79;66.95
60246;BME280;46107;53.356;-1.524;2023-04-15T06:32:50;98947.90;;;5.90;67.52
60246;BME280;46107;53.356;-1.524;2023-04-15T06:35:18;98951.35;;;5.69;69.27
60246;BME280;46107;53.356;-1.524;2023-04-15T06:37:45;98955.76;;;5.21;70.61
60246;BME280;46107;53.356;-1.524;2023-04-15T06:40:13;98958.67;;;5.43;70.44
60246;BME280;46107;53.356;-1.524;2023-04-15T06:42:41;98962.53;;;6.09;68.60
60246;BME280;46107;53.356;-1.524;2023-04-15T06:45:09;98967.30;;;6.20;67.53
60246;BME280;46107;53.356;-1.524;2023-04-15T06:47:37;98973.92;;;5.65;68.44
60246;BME280;46107;53.356;-1.524;2023-04-15T06:50:05;98969.41;;;6.15;68.47
60246;BME280;46107;53.356;-1.524;2023-04-15T06:52:32;98974.77;;;5.46;71.05
60246;BME280;46107;53.356;-1.524;2023-04-15T06:55:01;98977.91;;;6.27;68.04
60246;BME280;46107;53.356;-1.524;2023-04-15T06:57:28;98979.32;;;5.22;71.35
60246;BME280;46107;53.356;-1.524;2023-04-15T06:59:55;98989.21;;;5.72;69.68
60246;BME280;46107;53.356;-1.524;2023-04-15T07:02:23;98996.67;;;5.82;69.05
60246;BME280;46107;53.356;-1.524;2023-04-15T07:04:51;99001.83;;;6.14;68.53
60246;BME280;46107;53.356;-1.524;2023-04-15T07:07:19;99012.70;;;6.61;68.42
60246;BME280;46107;53.356;-1.524;2023-04-15T07:09:46;99018.79;;;6.23;70.12
60246;BME280;46107;53.356;-1.524;2023-04-15T07:12:13;99020.52;;;6.24;69.67
60246;BME280;46107;53.356;-1.524;2023-04-15T07:14:41;99023.26;;;5.56;70.94
60246;BME280;46107;53.356;-1.524;2023-04-15T07:17:09;99025.50;;;5.71;71.05
60246;BME280;46107;53.356;-1.524;2023-04-15T07:19:36;99026.17;;;6.57;69.54
60246;BME280;46107;53.356;-1.524;2023-04-15T07:22:03;99032.30;;;6.63;68.99
60246;BME280;46107;53.356;-1.524;2023-04-15T07:24:31;99036.06;;;5.27;71.53
60246;BME280;46107;53.356;-1.524;2023-04-15T07:26:58;99039.76;;;6.38;68.70
60246;BME280;46107;53.356;-1.524;2023-04-15T07:29:26;99045.59;;;6.25;70.71
60246;BME280;46107;53.356;-1.524;2023-04-15T07:31:53;99053.71;;;5.83;72.08
60246;BME280;46107;53.356;-1.524;2023-04-15T07:34:21;99062.66;;;6.53;69.95
60246;BME280;46107;53.356;-1.524;2023-04-15T07:36:49;99070.30;;;6.50;70.47
60246;BME280;46107;53.356;-1.524;2023-04-15T07:39:16;99077.76;;;6.65;69.98
60246;BME280;46107;53.356;-1.524;2023-04-15T07:41:44;99087.82;;;6.57;69.47
60246;BME280;46107;53.356;-1.524;2023-04-15T07:44:12;99092.30;;;6.07;70.83
60246;BME280;46107;53.356;-1.524;2023-04-15T07:46:39;99099.45;;;6.93;69.02
60246;BME280;46107;53.356;-1.524;2023-04-15T07:49:06;99103.38;;;6.70;69.23
60246;BME280;46107;53.356;-1.524;2023-04-15T07:51:34;99106.84;;;6.84;67.27
60246;BME280;46107;53.356;-1.524;2023-04-15T07:54:02;99107.67;;;7.51;66.19
60246;BME280;46107;53.356;-1.524;2023-04-15T07:56:29;99113.93;;;6.27;69.91
60246;BME280;46107;53.356;-1.524;2023-04-15T07:58:57;99123.00;;;6.87;69.60
60246;BME280;46107;53.356;-1.524;2023-04-15T08:01:24;99121.79;;;6.16;71.49
60246;BME280;46107;53.356;-1.524;2023-04-15T08:03:51;99130.00;;;7.21;69.45
60246;BME280;46107;53.356;-1.524;2023-04-15T08:06:19;99128.56;;;6.35;71.69
60246;BME280;46107;53.356;-1.524;2023-04-15T08:08:46;99129.60;;;7.62;67.78
60246;BME280;46107;53.356;-1.524;2023-04-15T08:11:14;99129.19;;;6.39;70.76
60246;BME280;46107;53.356;-1.524;2023-04-15T08:13:42;99132.21;;;7.65;66.60
60246;BME280;46107;53.356;-1.524;2023-04-15T08:16:18;99137.51;;;7.08;67.57
60246;BME280;46107;53.356;-1.524;2023-04-15T08:18:47;99145.48;;;7.80;66.95
60246;BME280;46107;53.356;-1.524;2023-04-15T08:21:15;99145.43;;;6.01;70.80
60246;BME280;46107;53.356;-1.524;2023-04-15T08:23:43;99145.21;;;6.74;71.24
60246;BME280;46107;53.356;-1.524;2023-04-15T08:26:11;99149.42;;;7.10;70.42
60246;BME280;46107;53.356;-1.524;2023-04-15T08:28:40;99150.12;;;7.22;69.24
60246;BME280;46107;53.356;-1.524;2023-04-15T08:31:08;99154.82;;;5.82;72.85
60246;BME280;46107;53.356;-1.524;2023-04-15T08:33:36;99157.94;;;6.35;72.31
60246;BME280;46107;53.356;-1.524;2023-04-15T08:36:04;99159.46;;;5.71;73.85
60246;BME280;46107;53.356;-1.524;2023-04-15T08:38:33;99158.84;;;6.65;73.57
60246;BME280;46107;53.356;-1.524;2023-04-15T08:41:03;99164.17;;;7.18;72.16
60246;BME280;46107;53.356;-1.524;2023-04-15T08:43:35;99169.31;;;6.18;73.98
60246;BME280;46107;53.356;-1.524;2023-04-15T08:46:07;99173.48;;;7.35;71.85
60246;BME280;46107;53.356;-1.524;2023-04-15T08:48:38;99179.93;;;6.91;68.56
60246;BME280;46107;53.356;-1.524;2023-04-15T08:51:06;99191.44;;;7.77;68.86
60246;BME280;46107;53.356;-1.524;2023-04-15T08:53:33;99200.44;;;7.01;70.71
60246;BME280;46107;53.356;-1.524;2023-04-15T08:56:04;99202.82;;;7.05;69.53
60246;BME280;46107;53.356;-1.524;2023-04-15T08:58:35;99205.21;;;7.00;70.36
60246;BME280;46107;53.356;-1.524;2023-04-15T09:01:03;99206.93;;;7.45;72.29
60246;BME280;46107;53.356;-1.524;2023-04-15T09:03:31;99204.05;;;7.45;71.59
60246;BME280;46107;53.356;-1.524;2023-04-15T09:05:59;99207.72;;;7.80;68.79
60246;BME280;46107;53.356;-1.524;2023-04-15T09:08:27;99212.04;;;8.15;66.96
60246;BME280;46107;53.356;-1.524;2023-04-15T09:10:54;99210.47;;;7.30;68.02
60246;BME280;46107;53.356;-1.524;2023-04-15T09:13:22;99216.60;;;7.83;69.52
60246;BME280;46107;53.356;-1.524;2023-04-15T09:15:49;99223.70;;;6.51;72.28
60246;BME280;46107;53.356;-1.524;2023-04-15T09:18:27;99225.11;;;8.33;65.76
60246;BME280;46107;53.356;-1.524;2023-04-15T09:20:54;99230.12;;;8.52;66.40
60246;BME280;46107;53.356;-1.524;2023-04-15T09:23:22;99233.99;;;7.18;70.26
60246;BME280;46107;53.356;-1.524;2023-04-15T09:25:50;99234.87;;;8.06;68.12
60246;BME280;46107;53.356;-1.524;2023-04-15T09:28:24;99238.32;;;8.10;69.70
60246;BME280;46107;53.356;-1.524;2023-04-15T09:30:54;99237.15;;;7.45;72.08
60246;BME280;46107;53.356;-1.524;2023-04-15T09:33:24;99235.14;;;7.94;68.93
60246;BME280;46107;53.356;-1.524;2023-04-15T09:36:01;99240.75;;;8.17;71.09
60246;BME280;46107;53.356;-1.524;2023-04-15T09:38:29;99238.80;;;8.57;64.00
60246;BME280;46107;53.356;-1.524;2023-04-15T09:40:57;99246.76;;;9.59;63.20
60246;BME280;46107;53.356;-1.524;2023-04-15T09:43:39;99250.64;;;8.72;68.62
60246;BME280;46107;53.356;-1.524;2023-04-15T09:46:06;99261.80;;;7.38;69.24
60246;BME280;46107;53.356;-1.524;2023-04-15T09:48:35;99267.18;;;8.26;66.74
60246;BME280;46107;53.356;-1.524;2023-04-15T09:51:03;99276.88;;;7.97;67.91
60246;BME280;46107;53.356;-1.524;2023-04-15T09:53:33;99282.08;;;8.45;64.54
60246;BME280;46107;53.356;-1.524;2023-04-15T09:56:01;99279.10;;;8.95;67.26
60246;BME280;46107;53.356;-1.524;2023-04-15T09:58:31;99278.90;;;8.84;67.70
60246;BME280;46107;53.356;-1.524;2023-04-15T10:00:59;99286.19;;;9.89;61.94
60246;BME280;46107;53.356;-1.524;2023-04-15T10:03:28;99284.25;;;8.79;62.63
60246;BME280;46107;53.356;-1.524;2023-04-15T10:05:57;99289.65;;;8.66;60.93
60246;BME280;46107;53.356;-1.524;2023-04-15T10:08:26;99288.73;;;8.66;62.53
60246;BME280;46107;53.356;-1.524;2023-04-15T10:10:54;99296.22;;;9.59;61.18
60246;BME280;46107;53.356;-1.524;2023-04-15T10:13:24;99300.36;;;8.89;60.90
60246;BME280;46107;53.356;-1.524;2023-04-15T10:15:57;99303.89;;;8.57;62.92
60246;BME280;46107;53.356;-1.524;2023-04-15T10:18:26;99303.89;;;8.56;63.15
60246;BME280;46107;53.356;-1.524;2023-04-15T10:20:54;99302.40;;;9.06;60.79
60246;BME280;46107;53.356;-1.524;2023-04-15T10:23:22;99301.78;;;8.74;64.35
60246;BME280;46107;53.356;-1.524;2023-04-15T10:25:51;99303.39;;;7.96;63.24
60246;BME280;46107;53.356;-1.524;2023-04-15T10:28:20;99302.88;;;8.88;65.80
60246;BME280;46107;53.356;-1.524;2023-04-15T10:30:48;99308.54;;;9.39;61.10
60246;BME280;46107;53.356;-1.524;2023-04-15T10:33:19;99309.86;;;9.65;62.30
60246;BME280;46107;53.356;-1.524;2023-04-15T10:35:48;99312.94;;;8.57;65.25
60246;BME280;46107;53.356;-1.524;2023-04-15T10:38:35;99311.66;;;9.27;65.11
60246;BME280;46107;53.356;-1.524;2023-04-15T10:41:19;99314.14;;;9.38;64.21
60246;BME280;46107;53.356;-1.524;2023-04-15T10:43:50;99311.21;;;10.55;57.30
60246;BME280;46107;53.356;-1.524;2023-04-15T10:46:20;99315.04;;;9.91;59.78
60246;BME280;46107;53.356;-1.524;2023-04-15T10:48:49;99314.46;;;9.31;61.03
60246;BME280;46107;53.356;-1.524;2023-04-15T10:51:27;99316.53;;;8.76;58.42
60246;BME280;46107;53.356;-1.524;2023-04-15T10:53:57;99316.67;;;9.55;54.55
60246;BME280;46107;53.356;-1.524;2023-04-15T10:56:24;99319.88;;;9.95;57.44
60246;BME280;46107;53.356;-1.524;2023-04-15T10:58:52;99318.80;;;9.73;60.32
60246;BME280;46107;53.356;-1.524;2023-04-15T11:01:20;99323.87;;;10.54;59.99
60246;BME280;46107;53.356;-1.524;2023-04-15T11:03:48;99325.48;;;10.47;58.04
60246;BME280;46107;53.356;-1.524;2023-04-15T11:06:16;99331.45;;;9.75;57.52
60246;BME280;46107;53.356;-1.524;2023-04-15T11:08:59;99332.66;;;10.04;58.47
60246;BME280;46107;53.356;-1.524;2023-04-15T11:12:04;99335.23;;;10.96;56.72
60246;BME280;46107;53.356;-1.524;2023-04-15T11:14:32;99332.98;;;11.16;55.69
60246;BME280;46107;53.356;-1.524;2023-04-15T11:17:00;99336.57;;;9.89;57.16
60246;BME280;46107;53.356;-1.524;2023-04-15T11:19:36;99338.83;;;9.32;59.25
60246;BME280;46107;53.356;-1.524;2023-04-15T11:22:07;99343.88;;;10.61;56.17
60246;BME280;46107;53.356;-1.524;2023-04-15T11:24:34;99345.94;;;11.01;55.96
60246;BME280;46107;53.356;-1.524;2023-04-15T11:27:02;99349.59;;;10.65;55.88
60246;BME280;46107;53.356;-1.524;2023-04-15T11:29:30;99354.36;;;10.95;54.01
60246;BME280;46107;53.356;-1.524;2023-04-15T11:32:07;99350.18;;;11.47;50.68
60246;BME280;46107;53.356;-1.524;2023-04-15T11:34:35;99355.74;;;11.02;54.68
60246;BME280;46107;53.356;-1.524;2023-04-15T11:37:04;99361.32;;;10.38;53.80
60246;BME280;46107;53.356;-1.524;2023-04-15T11:39:31;99366.57;;;11.30;57.12
60246;BME280;46107;53.356;-1.524;2023-04-15T11:41:59;99366.13;;;11.69;52.40
60246;BME280;46107;53.356;-1.524;2023-04-15T11:44:27;99375.30;;;9.61;58.54
60246;BME280;46107;53.356;-1.524;2023-04-15T11:46:54;99377.50;;;11.17;54.73
60246;BME280;46107;53.356;-1.524;2023-04-15T11:49:29;99378.30;;;10.84;52.31
60246;BME280;46107;53.356;-1.524;2023-04-15T11:51:57;99382.02;;;10.01;55.90
60246;BME280;46107;53.356;-1.524;2023-04-15T11:54:25;99377.18;;;10.17;57.22
60246;BME280;46107;53.356;-1.524;2023-04-15T11:56:53;99381.93;;;10.09;55.16
60246;BME280;46107;53.356;-1.524;2023-04-15T11:59:20;99391.14;;;10.74;54.67
60246;BME280;46107;53.356;-1.524;2023-04-15T12:01:48;99397.28;;;10.77;53.23
60246;BME280;46107;53.356;-1.524;2023-04-15T12:04:16;99392.19;;;12.18;48.67
60246;BME280;46107;53.356;-1.524;2023-04-15T12:06:44;99390.96;;;12.01;49.78
60246;BME280;46107;53.356;-1.524;2023-04-15T12:09:13;99394.82;;;11.78;47.56
60246;BME280;46107;53.356;-1.524;2023-04-15T12:11:44;99407.97;;;10.99;53.16
60246;BME280;46107;53.356;-1.524;2023-04-15T12:14:18;99411.85;;;11.27;51.46
60246;BME280;46107;53.356;-1.524;2023-04-15T12:16:47;99406.71;;;9.84;54.71
60246;BME280;46107;53.356;-1.524;2023-04-15T12:19:16;99412.28;;;10.89;52.97
60246;BME280;46107;53.356;-1.524;2023-04-15T12:21:46;99412.95;;;10.47;53.84
60246;BME280;46107;53.356;-1.524;2023-04-15T12:24:14;99407.08;;;11.55;50.32
60246;BME280;46107;53.356;-1.524;2023-04-15T12:26:47;99404.47;;;11.73;51.34
60246;BME280;46107;53.356;-1.524;2023-04-15T12:29:16;99407.60;;;11.81;51.96
60246;BME280;46107;53.356;-1.524;2023-04-15T12:31:49;99407.88;;;11.70;51.80
60246;BME280;46107;53.356;-1.524;2023-04-15T12:34:24;99408.23;;;11.72;49.00
60246;BME280;46107;53.356;-1.524;2023-04-15T12:36:52;99408.64;;;12.17;49.02
60246;BME280;46107;53.356;-1.524;2023-04-15T12:39:21;99408.31;;;12.65;47.93
60246;BME280;46107;53.356;-1.524;2023-04-15T12:41:49;99410.49;;;11.93;51.46
60246;BME280;46107;53.356;-1.524;2023-04-15T12:44:16;99411.14;;;11.71;48.86
60246;BME280;46107;53.356;-1.524;2023-04-15T12:46:45;99408.60;;;13.37;47.52
60246;BME280;46107;53.356;-1.524;2023-04-15T12:49:12;99408.44;;;13.57;46.17
60246;BME280;46107;53.356;-1.524;2023-04-15T12:51:40;99407.50;;;12.85;48.05
60246;BME280;46107;53.356;-1.524;2023-04-15T12:54:07;99413.85;;;11.62;49.90
60246;BME280;46107;53.356;-1.524;2023-04-15T12:56:34;99421.23;;;12.05;48.76
60246;BME280;46107;53.356;-1.524;2023-04-15T12:59:01;99428.38;;;11.95;49.89
60246;BME280;46107;53.356;-1.524;2023-04-15T13:01:29;99433.79;;;11.97;50.51
60246;BME280;46107;53.356;-1.524;2023-04-15T13:03:56;99434.87;;;11.87;50.26